Time;durP1;ratioP1;P1;durP2;ratioP2;P2;SDS_P1;SDS_P2;PMS_P1;PMS_P2;Temp;Humidity;BMP_temperature;BMP_pressure;BME280_temperature;BME280_humidity;BME280_pressure;Samples;Min_cycle;Max_cycle;Signal;HPM_P1;HPM_P2
2022/07/10 00:01:27;;;;;;;0.20;0.20;;;14.70;99.90;;;;;;6212238;23;20056;-82
2022/07/10 00:04:02;;;;;;;0.10;0.10;;;14.60;99.90;;;;;;6184939;23;20445;-81
2022/07/10 00:06:28;;;;;;;0.20;0.20;;;14.90;99.90;;;;;;6185773;23;20027;-84
2022/07/10 00:08:55;;;;;;;0.15;0.15;;;14.70;99.90;;;;;;6211666;23;20087;-82
2022/07/10 00:11:20;;;;;;;0.10;0.10;;;14.70;99.90;;;;;;6185457;23;20476;-85
2022/07/10 00:13:46;;;;;;;0.10;0.10;;;14.70;99.90;;;;;;6183637;23;20013;-82
2022/07/10 00:16:12;;;;;;;0.10;0.10;;;14.70;99.90;;;;;;6212059;23;20024;-83
2022/07/10 00:18:37;;;;;;;0.10;0.10;;;14.70;99.90;;;;;;6211968;23;20013;-82
2022/07/10 00:21:03;;;;;;;0.13;0.13;;;14.60;99.90;;;;;;6210040;23;20017;-83
2022/07/10 00:23:28;;;;;;;0.10;0.10;;;14.70;99.90;;;;;;6211511;23;20353;-81
2022/07/10 00:25:54;;;;;;;0.10;0.10;;;14.60;99.90;;;;;;6183888;23;20017;-82
2022/07/10 00:28:20;;;;;;;0.10;0.10;;;15.30;99.90;;;;;;6209561;23;20028;-83
2022/07/10 00:30:45;;;;;;;0.10;0.10;;;14.60;99.90;;;;;;6211003;23;20025;-81
2022/07/10 00:33:11;;;;;;;0.10;0.10;;;14.60;99.90;;;;;;6184438;23;20103;-82
2022/07/10 00:35:36;;;;;;;0.20;0.20;;;14.60;99.90;;;;;;6209231;23;20318;-82
2022/07/10 00:38:02;;;;;;;0.10;0.10;;;14.50;99.90;;;;;;6197147;23;20028;-81
2022/07/10 00:40:28;;;;;;;0.20;0.20;;;14.60;99.90;;;;;;6208786;23;20353;-82
2022/07/10 00:42:53;;;;;;;0.10;0.10;;;14.50;99.90;;;;;;6207258;23;20027;-83
2022/07/10 00:45:19;;;;;;;0.10;0.10;;;14.60;99.90;;;;;;6212711;23;20020;-82
2022/07/10 00:47:44;;;;;;;0.10;0.10;;;14.60;99.90;;;;;;6211523;23;20104;-81
2022/07/10 00:50:12;;;;;;;0.10;0.10;;;14.60;99.90;;;;;;6209880;23;20021;-82
2022/07/10 00:52:38;;;;;;;0.20;0.20;;;14.60;99.90;;;;;;6208282;23;20016;-81
2022/07/10 00:55:06;;;;;;;0.10;0.10;;;14.50;99.90;;;;;;6208048;23;20044;-82
2022/07/10 00:57:36;;;;;;;0.20;0.20;;;14.50;99.90;;;;;;6210857;23;20362;-81
2022/07/10 01:00:02;;;;;;;0.10;0.10;;;14.60;99.90;;;;;;6207774;23;20021;-80
2022/07/10 01:02:28;;;;;;;0.10;0.10;;;14.50;99.90;;;;;;6208313;23;20304;-82
2022/07/10 01:04:57;;;;;;;0.20;0.20;;;14.50;99.90;;;;;;6209669;23;20013;-82
2022/07/10 01:07:26;;;;;;;0.20;0.20;;;14.50;99.90;;;;;;6211496;23;20063;-83
2022/07/10 01:09:52;;;;;;;0.10;0.10;;;14.50;99.90;;;;;;6208581;23;20139;-82
2022/07/10 01:12:17;;;;;;;0.10;0.10;;;14.50;99.90;;;;;;6212246;23;20052;-83
2022/07/10 01:14:43;;;;;;;0.10;0.10;;;14.50;99.90;;;;;;6209904;23;20071;-83
2022/07/10 01:17:10;;;;;;;0.10;0.10;;;14.50;99.90;;;;;;6208281;23;20028;-81
2022/07/10 01:19:36;;;;;;;0.10;0.10;;;14.50;99.90;;;;;;6208635;23;20048;-81
2022/07/10 01:22:02;;;;;;;0.10;0.10;;;14.50;99.90;;;;;;6208927;23;20095;-82
2022/07/10 01:24:31;;;;;;;0.10;0.10;;;14.50;99.90;;;;;;6210023;23;20031;-82
2022/07/10 01:26:59;;;;;;;0.20;0.20;;;14.50;99.90;;;;;;6208963;23;20449;-82
2022/07/10 01:29:25;;;;;;;0.20;0.20;;;14.50;99.90;;;;;;6206918;23;20020;-84
2022/07/10 01:31:53;;;;;;;0.20;0.20;;;14.50;99.90;;;;;;6209550;23;20017;-83
2022/07/10 01:34:19;;;;;;;0.10;0.10;;;14.50;99.90;;;;;;6210926;23;20123;-83
2022/07/10 01:36:47;;;;;;;0.10;0.10;;;14.50;99.90;;;;;;6209988;23;20451;-84
2022/07/10 01:39:20;;;;;;;0.10;0.10;;;14.50;99.90;;;;;;6208903;23;20028;-84
2022/07/10 01:41:46;;;;;;;0.10;0.10;;;14.50;99.90;;;;;;6211183;23;20134;-84
2022/07/10 01:44:14;;;;;;;0.10;0.10;;;14.50;99.90;;;;;;6182907;23;20111;-83
2022/07/10 01:46:48;;;;;;;0.20;0.20;;;14.50;99.90;;;;;;6182598;23;20074;-84
2022/07/10 01:49:14;;;;;;;0.20;0.20;;;14.50;99.90;;;;;;6182906;23;20062;-83
2022/07/10 01:51:40;;;;;;;0.10;0.10;;;14.50;99.90;;;;;;6208835;23;20239;-83
2022/07/10 01:54:06;;;;;;;0.10;0.10;;;14.50;99.90;;;;;;6208753;23;20023;-83
2022/07/10 01:56:32;;;;;;;0.10;0.10;;;14.40;99.90;;;;;;6209833;23;20013;-83
2022/07/10 01:59:00;;;;;;;0.10;0.10;;;14.40;99.90;;;;;;6180230;23;20028;-83
2022/07/10 02:01:28;;;;;;;0.13;0.13;;;14.50;99.90;;;;;;6209745;23;20114;-83
2022/07/10 02:06:38;;;;;;;0.10;0.10;;;14.30;99.90;;;;;;6209688;23;20092;-83
2022/07/10 02:09:04;;;;;;;0.10;0.10;;;14.40;99.90;;;;;;6180982;23;20129;-82
2022/07/10 02:11:29;;;;;;;0.10;0.10;;;14.50;99.90;;;;;;6211252;23;20454;-82
2022/07/10 02:13:55;;;;;;;0.10;0.10;;;14.50;99.90;;;;;;6180898;23;20445;-82
2022/07/10 02:16:21;;;;;;;0.10;0.10;;;14.40;99.90;;;;;;6182265;23;20055;-85
2022/07/10 02:18:46;;;;;;;0.10;0.10;;;14.40;99.90;;;;;;6181523;23;20013;-83
2022/07/10 02:21:12;;;;;;;0.10;0.10;;;14.40;99.90;;;;;;6209157;23;20082;-83
2022/07/10 02:23:40;;;;;;;0.10;0.10;;;14.40;99.90;;;;;;6182468;23;20027;-82
2022/07/10 02:26:06;;;;;;;0.10;0.10;;;14.40;99.90;;;;;;6182844;23;20036;-83
2022/07/10 02:28:32;;;;;;;0.10;0.10;;;14.40;99.90;;;;;;6208207;23;20094;-84
2022/07/10 02:30:57;;;;;;;0.10;0.10;;;14.30;99.90;;;;;;6208404;23;20051;-84
2022/07/10 02:33:23;;;;;;;0.20;0.20;;;14.30;99.90;;;;;;6183258;23;20017;-83
2022/07/10 02:35:49;;;;;;;0.10;0.10;;;14.30;99.90;;;;;;6207762;23;20016;-82
2022/07/10 02:38:15;;;;;;;0.10;0.10;;;14.30;99.90;;;;;;6208743;23;20023;-84
2022/07/10 02:40:40;;;;;;;0.10;0.10;;;14.30;99.90;;;;;;6180026;23;20024;-82
2022/07/10 02:43:06;;;;;;;0.10;0.10;;;14.20;99.90;;;;;;6207066;23;20047;-83
2022/07/10 02:45:31;;;;;;;0.10;0.10;;;14.20;99.90;;;;;;6183057;23;20059;-82
2022/07/10 02:48:00;;;;;;;0.10;0.10;;;14.20;99.90;;;;;;6180269;23;20020;-83
2022/07/10 02:50:25;;;;;;;0.10;0.10;;;14.20;99.90;;;;;;6182428;23;20021;-83
2022/07/10 02:52:51;;;;;;;0.10;0.10;;;14.20;99.90;;;;;;6181708;23;20024;-83
2022/07/10 02:55:17;;;;;;;0.10;0.10;;;14.20;99.90;;;;;;6208401;23;20318;-83
2022/07/10 02:57:42;;;;;;;0.17;0.17;;;14.20;99.90;;;;;;6181940;23;20016;-83
2022/07/10 03:00:08;;;;;;;0.17;0.17;;;14.20;99.90;;;;;;6181322;23;20479;-83
2022/07/10 03:02:34;;;;;;;0.10;0.10;;;14.30;99.90;;;;;;6207415;23;20008;-84
2022/07/10 03:05:00;;;;;;;0.20;0.20;;;14.20;99.90;;;;;;6208769;23;20488;-83
2022/07/10 03:07:25;;;;;;;0.20;0.20;;;14.30;99.90;;;;;;6209958;23;20121;-83
2022/07/10 03:09:51;;;;;;;0.20;0.20;;;14.20;99.90;;;;;;6206495;23;20024;-83
2022/07/10 03:12:16;;;;;;;0.10;0.10;;;14.30;99.90;;;;;;6211539;23;20220;-84
2022/07/10 03:14:42;;;;;;;0.10;0.10;;;14.20;99.90;;;;;;6182613;23;20044;-83
2022/07/10 03:17:07;;;;;;;0.20;0.20;;;14.30;99.90;;;;;;6182528;23;20014;-83
2022/07/10 03:19:33;;;;;;;0.10;0.10;;;14.20;99.90;;;;;;6209220;23;20012;-83
2022/07/10 03:21:59;;;;;;;0.10;0.10;;;14.20;99.90;;;;;;6208348;23;20008;-83
2022/07/10 03:24:25;;;;;;;0.20;0.20;;;14.30;99.90;;;;;;6181812;23;20067;-84
2022/07/10 03:26:50;;;;;;;0.10;0.10;;;14.20;99.90;;;;;;6181525;23;20017;-86
2022/07/10 03:29:16;;;;;;;0.10;0.10;;;14.20;99.90;;;;;;6208111;23;20016;-84
2022/07/10 03:31:42;;;;;;;0.20;0.20;;;14.20;99.90;;;;;;6207096;23;20020;-85
2022/07/10 03:34:08;;;;;;;0.20;0.20;;;14.20;99.90;;;;;;6182110;23;20563;-83
2022/07/10 03:36:33;;;;;;;0.15;0.15;;;14.20;99.90;;;;;;6181253;23;20021;-84
2022/07/10 03:38:59;;;;;;;0.15;0.15;;;14.30;99.90;;;;;;6207599;23;20024;-84
2022/07/10 03:41:25;;;;;;;0.10;0.10;;;14.30;99.90;;;;;;6207132;23;20107;-83
2022/07/10 03:43:50;;;;;;;0.20;0.20;;;14.30;99.90;;;;;;6206823;23;20008;-84
2022/07/10 03:46:16;;;;;;;0.20;0.20;;;14.30;99.90;;;;;;6181311;23;20075;-84
2022/07/10 03:48:41;;;;;;;0.10;0.10;;;14.40;99.90;;;;;;6208881;23;20074;-83
2022/07/10 03:51:07;;;;;;;0.10;0.10;;;14.40;99.90;;;;;;6207637;23;20012;-83
2022/07/10 03:53:33;;;;;;;0.10;0.10;;;14.40;99.90;;;;;;6180458;23;20023;-85
2022/07/10 03:56:00;;;;;;;0.10;0.10;;;14.40;99.90;;;;;;6182135;23;20017;-83
2022/07/10 03:58:26;;;;;;;0.10;0.10;;;14.50;99.90;;;;;;6206963;23;20016;-84
2022/07/10 04:00:51;;;;;;;0.17;0.17;;;14.60;99.90;;;;;;6209441;23;20513;-84
2022/07/10 04:03:17;;;;;;;0.10;0.10;;;14.50;99.90;;;;;;6182873;23;20079;-83
2022/07/10 04:05:43;;;;;;;0.10;0.10;;;14.60;99.90;;;;;;6207789;23;20020;-83
2022/07/10 04:08:09;;;;;;;0.20;0.20;;;14.50;99.90;;;;;;6208276;23;20047;-82
2022/07/10 04:10:35;;;;;;;0.20;0.20;;;14.50;99.90;;;;;;6209019;23;20016;-82
2022/07/10 04:13:00;;;;;;;0.10;0.10;;;14.60;99.90;;;;;;6206272;23;20039;-83
2022/07/10 04:15:26;;;;;;;0.15;0.15;;;14.60;99.90;;;;;;6209689;23;20512;-82
2022/07/10 04:17:52;;;;;;;0.10;0.10;;;14.70;99.90;;;;;;6207523;23;20020;-84
2022/07/10 04:20:19;;;;;;;0.20;0.20;;;14.70;99.90;;;;;;6208160;23;20016;-81
2022/07/10 04:22:45;;;;;;;0.13;0.13;;;14.60;99.90;;;;;;6182666;23;20025;-81
2022/07/10 04:25:12;;;;;;;0.10;0.10;;;14.70;99.90;;;;;;6211471;23;20079;-81
2022/07/10 04:27:38;;;;;;;0.10;0.10;;;14.70;99.90;;;;;;6182573;23;20394;-83
2022/07/10 04:30:04;;;;;;;0.10;0.10;;;14.70;99.90;;;;;;6183545;23;20489;-81
2022/07/10 04:32:30;;;;;;;0.10;0.10;;;14.80;99.90;;;;;;6184027;23;20069;-83
2022/07/10 04:34:56;;;;;;;0.10;0.10;;;14.80;99.90;;;;;;6210113;23;20349;-82
2022/07/10 04:37:21;;;;;;;0.10;0.10;;;14.80;99.90;;;;;;6211055;23;20013;-82
2022/07/10 04:39:47;;;;;;;0.20;0.20;;;14.80;99.90;;;;;;6207379;23;20494;-81
2022/07/10 04:42:13;;;;;;;0.10;0.10;;;14.90;99.90;;;;;;6182627;23;20016;-81
2022/07/10 04:44:39;;;;;;;0.10;0.10;;;14.90;99.90;;;;;;6209837;23;20063;-81
2022/07/10 04:47:05;;;;;;;0.10;0.10;;;14.50;99.90;;;;;;6209784;23;20024;-81
2022/07/10 04:49:31;;;;;;;0.10;0.10;;;14.90;99.90;;;;;;6183306;23;20013;-81
2022/07/10 04:51:57;;;;;;;0.20;0.20;;;14.90;99.90;;;;;;6210874;23;20017;-82
2022/07/10 04:54:23;;;;;;;0.10;0.10;;;15.00;99.90;;;;;;6181510;23;20019;-83
2022/07/10 04:56:49;;;;;;;0.20;0.20;;;14.90;99.90;;;;;;6210439;23;20091;-81
2022/07/10 04:59:14;;;;;;;0.10;0.10;;;14.90;99.90;;;;;;6209554;23;20024;-82
2022/07/10 05:01:40;;;;;;;0.10;0.10;;;14.90;99.90;;;;;;6209086;23;20503;-80
2022/07/10 05:04:06;;;;;;;0.10;0.10;;;15.00;99.90;;;;;;6183916;23;20024;-82
2022/07/10 05:06:31;;;;;;;0.17;0.17;;;15.10;99.90;;;;;;6210768;23;20345;-81
2022/07/10 05:08:57;;;;;;;0.20;0.20;;;15.00;99.90;;;;;;6208779;23;20017;-81
2022/07/10 05:11:22;;;;;;;0.20;0.20;;;15.10;99.90;;;;;;6184822;23;20008;-81
2022/07/10 05:13:48;;;;;;;0.20;0.20;;;15.10;99.90;;;;;;6181825;23;20036;-82
2022/07/10 05:16:15;;;;;;;0.10;0.10;;;15.10;99.90;;;;;;6183266;23;20017;-83
2022/07/10 05:18:41;;;;;;;0.10;0.10;;;15.20;99.90;;;;;;6209536;23;20016;-84
2022/07/10 05:21:07;;;;;;;0.10;0.10;;;15.20;99.90;;;;;;6182454;23;20105;-82
2022/07/10 05:23:33;;;;;;;0.13;0.13;;;15.20;99.90;;;;;;6208392;23;20043;-80
2022/07/10 05:25:59;;;;;;;0.17;0.17;;;15.30;99.90;;;;;;6183666;23;20468;-81
2022/07/10 05:28:25;;;;;;;0.13;0.13;;;15.20;99.90;;;;;;6208888;23;20017;-82
2022/07/10 05:30:51;;;;;;;0.10;0.10;;;15.20;99.90;;;;;;6207357;23;20020;-81
2022/07/10 05:33:17;;;;;;;0.10;0.10;;;15.30;99.90;;;;;;6208903;23;20188;-84
2022/07/10 05:35:42;;;;;;;0.10;0.10;;;15.40;99.90;;;;;;6182543;23;20191;-81
2022/07/10 05:38:08;;;;;;;0.20;0.20;;;15.40;99.90;;;;;;6197395;23;20048;-80
2022/07/10 05:40:34;;;;;;;0.10;0.10;;;15.30;99.90;;;;;;6211205;23;20017;-82
2022/07/10 05:43:00;;;;;;;0.10;0.10;;;15.40;99.90;;;;;;6209278;23;20031;-82
2022/07/10 05:45:26;;;;;;;0.10;0.10;;;15.40;99.90;;;;;;6207802;23;20027;-80
2022/07/10 05:47:51;;;;;;;0.10;0.10;;;15.50;99.90;;;;;;6208838;23;20040;-80
2022/07/10 05:50:17;;;;;;;0.10;0.10;;;15.50;99.90;;;;;;6208487;23;20154;-82
2022/07/10 05:52:43;;;;;;;0.20;0.20;;;15.50;99.90;;;;;;6208885;23;20016;-82
2022/07/10 05:55:09;;;;;;;0.20;0.20;;;15.50;99.90;;;;;;6209274;23;20036;-82
2022/07/10 05:57:35;;;;;;;0.10;0.10;;;15.50;99.90;;;;;;6209631;23;20354;-80
2022/07/10 06:00:03;;;;;;;0.10;0.10;;;15.60;99.90;;;;;;6205921;23;20054;-79
2022/07/10 06:02:29;;;;;;;0.10;0.10;;;15.50;99.90;;;;;;6216491;23;20119;-82
2022/07/10 06:04:54;;;;;;;0.10;0.10;;;15.50;99.90;;;;;;6224645;23;20171;-83
2022/07/10 06:07:20;;;;;;;0.10;0.10;;;15.50;99.90;;;;;;6225756;23;20016;-82
2022/07/10 06:09:45;;;;;;;0.20;0.20;;;15.60;99.90;;;;;;6222483;23;20437;-81
2022/07/10 06:12:11;;;;;;;0.20;0.20;;;15.60;99.90;;;;;;6216487;23;20020;-81
2022/07/10 06:14:39;;;;;;;0.10;0.10;;;15.60;99.90;;;;;;6217765;23;20016;-82
2022/07/10 06:17:05;;;;;;;0.20;0.20;;;15.60;99.90;;;;;;6218757;23;20035;-83
2022/07/10 06:19:31;;;;;;;0.10;0.10;;;15.60;99.90;;;;;;6217026;23;20025;-81
2022/07/10 06:24:40;;;;;;;0.20;0.20;;;15.70;99.90;;;;;;6209289;23;20234;-80
2022/07/10 06:27:06;;;;;;;0.10;0.10;;;15.70;99.90;;;;;;6207203;23;20179;-80
2022/07/10 06:29:31;;;;;;;0.13;0.13;;;15.70;99.90;;;;;;6208426;23;20034;-80
2022/07/10 06:31:57;;;;;;;0.20;0.20;;;15.70;99.90;;;;;;6210201;23;20020;-81
2022/07/10 06:34:23;;;;;;;0.20;0.20;;;15.70;99.90;;;;;;6206308;23;20063;-79
2022/07/10 06:36:49;;;;;;;0.10;0.10;;;15.70;99.90;;;;;;6209314;23;20124;-81
2022/07/10 06:39:14;;;;;;;0.20;0.20;;;15.70;99.90;;;;;;6182251;23;20024;-81
2022/07/10 06:41:40;;;;;;;0.20;0.20;;;15.70;99.90;;;;;;6208739;23;20017;-81
2022/07/10 06:44:05;;;;;;;0.20;0.20;;;15.70;99.90;;;;;;6207537;23;20020;-81
2022/07/10 06:46:32;;;;;;;0.20;0.20;;;15.70;99.90;;;;;;6183043;23;20092;-81
2022/07/10 06:48:58;;;;;;;0.10;0.10;;;15.60;99.90;;;;;;6207339;23;20044;-80
2022/07/10 06:51:24;;;;;;;0.15;0.15;;;15.70;99.90;;;;;;6183136;23;20016;-81
2022/07/10 06:53:50;;;;;;;0.10;0.10;;;15.70;99.90;;;;;;6182013;23;20550;-80
2022/07/10 06:56:16;;;;;;;0.20;0.20;;;15.70;99.90;;;;;;6182226;23;20031;-81
2022/07/10 06:58:42;;;;;;;0.20;0.20;;;15.80;99.90;;;;;;6181283;23;20020;-81
2022/07/10 07:01:08;;;;;;;0.10;0.10;;;15.80;99.90;;;;;;6208628;23;20085;-81
2022/07/10 07:03:33;;;;;;;0.10;0.10;;;15.90;99.90;;;;;;6209105;23;20385;-81
2022/07/10 07:05:59;;;;;;;0.20;0.20;;;15.80;99.90;;;;;;6208521;23;20095;-79
2022/07/10 07:08:25;;;;;;;0.20;0.20;;;15.90;99.90;;;;;;6180058;23;20109;-81
2022/07/10 07:10:50;;;;;;;0.10;0.10;;;15.90;99.90;;;;;;6181749;23;20172;-82
2022/07/10 07:13:17;;;;;;;0.10;0.10;;;15.90;99.90;;;;;;6182299;23;20031;-82
2022/07/10 07:15:49;;;;;;;0.20;0.20;;;15.90;99.90;;;;;;6182317;23;20016;-82
2022/07/10 07:18:16;;;;;;;0.10;0.10;;;15.90;99.90;;;;;;6208858;23;20021;-83
2022/07/10 07:23:26;;;;;;;0.20;0.20;;;16.00;99.90;;;;;;6207955;23;20017;-84
2022/07/10 07:25:52;;;;;;;0.10;0.10;;;16.10;99.90;;;;;;6208828;23;20023;-83
2022/07/10 07:28:19;;;;;;;0.20;0.20;;;16.10;99.90;;;;;;6208070;23;20021;-80
2022/07/10 07:30:46;;;;;;;0.17;0.17;;;16.00;99.90;;;;;;6182160;23;20031;-80
2022/07/10 07:33:12;;;;;;;0.10;0.10;;;16.10;99.90;;;;;;6183141;23;20016;-83
2022/07/10 07:35:38;;;;;;;0.10;0.10;;;16.10;99.90;;;;;;6210754;23;20456;-82
2022/07/10 07:38:04;;;;;;;0.20;0.20;;;16.10;99.90;;;;;;6207333;23;20412;-85
2022/07/10 07:40:29;;;;;;;0.10;0.10;;;16.10;99.90;;;;;;6209740;23;20099;-84
2022/07/10 07:42:56;;;;;;;0.10;0.10;;;16.10;99.90;;;;;;6208743;23;20021;-83
2022/07/10 07:45:23;;;;;;;0.10;0.10;;;16.20;99.90;;;;;;6209545;23;20452;-83
2022/07/10 07:47:55;;;;;;;0.20;0.20;;;16.20;99.90;;;;;;6181791;23;20020;-84
2022/07/10 07:50:23;;;;;;;0.10;0.10;;;16.20;99.90;;;;;;6182314;23;20020;-82
2022/07/10 07:52:49;;;;;;;0.20;0.20;;;16.20;99.90;;;;;;6208671;23;20009;-81
2022/07/10 07:55:16;;;;;;;0.10;0.10;;;16.30;99.90;;;;;;6208066;23;20024;-82
2022/07/10 07:57:43;;;;;;;0.17;0.17;;;16.30;99.90;;;;;;6182241;23;20031;-79
2022/07/10 08:00:09;;;;;;;0.20;0.20;;;16.40;99.90;;;;;;6208695;23;20325;-82
2022/07/10 08:02:35;;;;;;;0.10;0.10;;;16.40;99.90;;;;;;6210404;23;20013;-81
2022/07/10 08:05:02;;;;;;;0.10;0.10;;;16.40;99.90;;;;;;6209904;23;20017;-81
2022/07/10 08:07:43;;;;;;;0.10;0.10;;;16.40;99.90;;;;;;6211704;23;20008;-81
2022/07/10 08:10:13;;;;;;;0.10;0.10;;;16.40;99.90;;;;;;6212195;23;20402;-81
2022/07/10 08:12:40;;;;;;;0.20;0.20;;;16.30;99.90;;;;;;6209832;23;20014;-81
2022/07/10 08:15:10;;;;;;;0.20;0.20;;;16.30;99.90;;;;;;6210195;23;20068;-81
2022/07/10 08:17:36;;;;;;;0.20;0.20;;;16.30;99.90;;;;;;6211305;23;20027;-81
2022/07/10 08:20:03;;;;;;;0.10;0.10;;;16.30;99.90;;;;;;6210157;23;20064;-81
2022/07/10 08:22:28;;;;;;;0.20;0.20;;;16.20;99.90;;;;;;6184980;23;20016;-81
2022/07/10 08:24:56;;;;;;;0.10;0.10;;;16.30;99.90;;;;;;6210228;23;20052;-81
2022/07/10 08:27:22;;;;;;;0.20;0.20;;;16.30;99.90;;;;;;6183678;23;20432;-82
2022/07/10 08:29:47;;;;;;;0.10;0.10;;;16.30;99.90;;;;;;6183312;23;20048;-82
2022/07/10 08:32:13;;;;;;;0.10;0.10;;;16.40;99.90;;;;;;6182506;23;20071;-81
2022/07/10 08:34:38;;;;;;;0.15;0.15;;;16.30;99.90;;;;;;6210830;23;20278;-81
2022/07/10 08:37:04;;;;;;;0.20;0.20;;;16.40;99.90;;;;;;6210687;23;20028;-81
2022/07/10 08:39:31;;;;;;;0.10;0.10;;;16.40;99.90;;;;;;6210092;23;20334;-80
2022/07/10 08:41:57;;;;;;;0.10;0.10;;;16.40;99.90;;;;;;6182805;23;20017;-81
2022/07/10 08:44:23;;;;;;;0.20;0.20;;;16.50;99.90;;;;;;6182593;23;20345;-81
2022/07/10 08:46:49;;;;;;;0.10;0.10;;;16.40;99.90;;;;;;6182527;23;20020;-81
2022/07/10 08:49:17;;;;;;;0.10;0.10;;;16.40;99.90;;;;;;6211536;23;20588;-80
2022/07/10 08:52:05;;;;;;;0.20;0.20;;;16.50;99.90;;;;;;6211351;23;20040;-81
2022/07/10 08:54:33;;;;;;;0.10;0.10;;;16.50;99.90;;;;;;6183040;23;20020;-81
2022/07/10 08:57:00;;;;;;;0.10;0.10;;;16.60;99.90;;;;;;6211550;23;20110;-83
2022/07/10 08:59:27;;;;;;;0.10;0.10;;;16.70;99.90;;;;;;6183763;23;20028;-82
2022/07/10 09:01:55;;;;;;;0.20;0.20;;;16.70;99.90;;;;;;6209832;23;20019;-79
2022/07/10 09:04:23;;;;;;;0.20;0.20;;;16.90;99.90;;;;;;6183975;23;20020;-80
2022/07/10 09:06:51;;;;;;;0.20;0.20;;;16.90;99.90;;;;;;6210563;23;20031;-81
2022/07/10 09:09:17;;;;;;;0.10;0.10;;;17.00;99.90;;;;;;6182645;23;20020;-81
2022/07/10 09:11:43;;;;;;;0.20;0.20;;;17.10;99.90;;;;;;6183878;23;20024;-80
2022/07/10 09:14:14;;;;;;;0.13;0.13;;;17.00;99.90;;;;;;6183050;23;20036;-82
2022/07/10 09:16:42;;;;;;;0.20;0.20;;;17.10;99.90;;;;;;6183475;23;20072;-82
2022/07/10 09:19:25;;;;;;;0.20;0.20;;;17.20;99.90;;;;;;6210741;23;20063;-82
2022/07/10 09:22:01;;;;;;;0.20;0.20;;;17.30;99.90;;;;;;6181365;23;20024;-80
2022/07/10 09:24:34;;;;;;;0.15;0.15;;;17.30;99.90;;;;;;6209128;23;20074;-80
2022/07/10 09:27:03;;;;;;;0.13;0.13;;;17.40;99.90;;;;;;6183135;23;20027;-81
2022/07/10 09:29:32;;;;;;;0.10;0.10;;;17.20;99.90;;;;;;6182320;23;20027;-82
2022/07/10 09:31:58;;;;;;;0.20;0.20;;;17.30;99.90;;;;;;6210365;23;20013;-80
2022/07/10 09:34:44;;;;;;;0.20;0.20;;;17.30;99.90;;;;;;6183797;23;20092;-81
2022/07/10 09:37:23;;;;;;;0.10;0.10;;;17.20;99.90;;;;;;6187854;23;20017;-80
2022/07/10 09:40:04;;;;;;;0.20;0.20;;;17.20;99.90;;;;;;6208975;23;20020;-80
2022/07/10 09:42:36;;;;;;;0.20;0.20;;;17.20;99.90;;;;;;6211198;23;20013;-81
2022/07/10 09:45:14;;;;;;;0.10;0.10;;;17.20;99.90;;;;;;6208642;23;20031;-81
2022/07/10 09:47:43;;;;;;;0.10;0.10;;;17.20;99.90;;;;;;6208998;23;20012;-81
2022/07/10 09:50:29;;;;;;;0.10;0.10;;;17.10;99.90;;;;;;6209718;23;20013;-82
2022/07/10 09:52:59;;;;;;;0.20;0.20;;;17.10;99.90;;;;;;6208788;23;20381;-81
2022/07/10 09:55:29;;;;;;;0.10;0.10;;;17.20;99.90;;;;;;6211370;23;20021;-79
2022/07/10 09:57:57;;;;;;;0.15;0.15;;;17.10;99.90;;;;;;6208958;23;20016;-79
2022/07/10 10:00:25;;;;;;;0.10;0.10;;;17.00;99.90;;;;;;6210693;23;20497;-81
2022/07/10 10:02:58;;;;;;;0.10;0.10;;;17.00;99.90;;;;;;6208016;23;20079;-81
2022/07/10 10:05:48;;;;;;;0.10;0.10;;;17.00;99.90;;;;;;6210577;23;20090;-82
2022/07/10 10:08:22;;;;;;;0.20;0.20;;;16.90;99.90;;;;;;6211114;23;20009;-81
2022/07/10 10:10:50;;;;;;;0.10;0.10;;;17.00;99.90;;;;;;6208725;23;20017;-81
2022/07/10 10:13:21;;;;;;;0.20;0.20;;;17.00;99.90;;;;;;6208005;23;20021;-80
2022/07/10 10:15:48;;;;;;;0.10;0.10;;;17.00;99.90;;;;;;6210384;23;20009;-80
2022/07/10 10:18:17;;;;;;;0.20;0.20;;;17.00;99.90;;;;;;6208919;23;20405;-80
2022/07/10 10:20:45;;;;;;;0.20;0.20;;;16.90;99.90;;;;;;6211263;23;20072;-80
2022/07/10 10:23:17;;;;;;;0.10;0.10;;;17.00;99.90;;;;;;6210749;23;20016;-82
2022/07/10 10:25:42;;;;;;;;;;;16.90;99.90;;;;;;6208839;23;20389;-81
2022/07/10 10:28:12;;;;;;;0.20;0.20;;;17.00;99.90;;;;;;6209905;23;19974;-81
2022/07/10 10:30:42;;;;;;;0.20;0.20;;;17.00;99.90;;;;;;6211485;23;20306;-81
2022/07/10 10:33:42;;;;;;;0.20;0.20;;;17.00;99.90;;;;;;6208470;23;20367;-82
2022/07/10 10:36:09;;;;;;;0.10;0.10;;;17.00;99.90;;;;;;6210990;23;20271;-82
2022/07/10 10:38:51;;;;;;;0.10;0.10;;;17.10;99.90;;;;;;6210196;23;20064;-81
2022/07/10 10:41:42;;;;;;;0.20;0.20;;;17.20;99.90;;;;;;6210610;23;20502;-81
2022/07/10 10:44:15;;;;;;;0.20;0.20;;;17.30;99.90;;;;;;6195476;23;20028;-82
2022/07/10 10:46:50;;;;;;;0.10;0.10;;;17.50;99.90;;;;;;6211074;23;20016;-83
2022/07/10 10:49:17;;;;;;;0.10;0.10;;;17.60;99.90;;;;;;6211432;23;20021;-81
2022/07/10 10:51:58;;;;;;;0.20;0.20;;;17.60;99.90;;;;;;6211820;23;20008;-81
2022/07/10 10:54:25;;;;;;;0.10;0.10;;;17.70;99.90;;;;;;6183084;23;20024;-82
2022/07/10 10:57:13;;;;;;;0.20;0.20;;;17.60;99.90;;;;;;6184250;23;20024;-81
2022/07/10 10:59:55;;;;;;;0.20;0.20;;;17.40;99.90;;;;;;6195279;23;20064;-81
2022/07/10 11:02:28;;;;;;;0.10;0.10;;;17.30;99.90;;;;;;6217215;23;20016;-80
2022/07/10 11:05:18;;;;;;;0.15;0.15;;;17.30;99.90;;;;;;6219324;23;20062;-84
2022/07/10 11:08:03;;;;;;;0.20;0.20;;;17.20;99.90;;;;;;6209543;23;20016;-82
2022/07/10 11:10:37;;;;;;;0.20;0.20;;;17.20;99.90;;;;;;6184333;23;20023;-82
2022/07/10 11:13:04;;;;;;;0.20;0.20;;;17.30;99.90;;;;;;6209344;23;20020;-82
2022/07/10 11:15:32;;;;;;;0.10;0.10;;;17.10;99.90;;;;;;6182114;23;20027;-82
2022/07/10 11:18:19;;;;;;;0.20;0.20;;;17.30;99.90;;;;;;6182562;23;20020;-82
2022/07/10 11:20:51;;;;;;;0.20;0.20;;;17.50;99.90;;;;;;6208409;23;20020;-82
2022/07/10 11:23:44;;;;;;;0.17;0.17;;;17.60;99.90;;;;;;6209587;23;20028;-82
2022/07/10 11:26:48;;;;;;;0.10;0.10;;;17.70;99.90;;;;;;6183865;23;20017;-82
2022/07/10 11:29:18;;;;;;;0.13;0.13;;;17.70;99.90;;;;;;6179755;23;20017;-82
2022/07/10 11:31:55;;;;;;;0.10;0.10;;;17.70;99.90;;;;;;6211495;23;20013;-81
2022/07/10 11:34:34;;;;;;;0.10;0.10;;;17.70;99.90;;;;;;6211783;23;20093;-82
2022/07/10 11:37:00;;;;;;;0.17;0.17;;;17.60;99.90;;;;;;6211162;23;20438;-81
2022/07/10 11:39:26;;;;;;;0.15;0.15;;;17.60;99.90;;;;;;6184864;23;20084;-82
2022/07/10 11:41:52;;;;;;;0.20;0.20;;;17.50;99.90;;;;;;6212715;23;20070;-83
2022/07/10 11:44:21;;;;;;;0.20;0.20;;;17.40;99.90;;;;;;6182489;23;20021;-82
2022/07/10 11:46:49;;;;;;;0.10;0.10;;;17.40;99.90;;;;;;6212259;23;20023;-82
2022/07/10 11:49:15;;;;;;;0.10;0.10;;;17.40;99.90;;;;;;6183399;23;20048;-83
2022/07/10 11:51:42;;;;;;;0.10;0.10;;;17.40;99.90;;;;;;6185825;23;20089;-82
2022/07/10 11:54:11;;;;;;;0.10;0.10;;;17.50;99.90;;;;;;6184400;23;20028;-82
2022/07/10 11:56:41;;;;;;;0.15;0.15;;;17.50;99.90;;;;;;6184806;23;20126;-84
2022/07/10 11:59:08;;;;;;;0.10;0.10;;;17.50;99.90;;;;;;6183335;23;20449;-82
2022/07/10 12:01:41;;;;;;;0.20;0.20;;;17.50;99.90;;;;;;6212854;23;20020;-83
2022/07/10 12:04:08;;;;;;;0.20;0.20;;;17.60;99.90;;;;;;6183532;23;20009;-83
2022/07/10 12:06:38;;;;;;;0.10;0.10;;;17.70;99.90;;;;;;6185689;23;20090;-84
2022/07/10 12:09:09;;;;;;;0.20;0.20;;;17.70;99.90;;;;;;6211789;23;20500;-83
2022/07/10 12:11:36;;;;;;;0.20;0.20;;;17.70;99.90;;;;;;6184773;23;20028;-82
2022/07/10 12:14:18;;;;;;;0.10;0.10;;;17.70;99.90;;;;;;6183843;23;20019;-83
2022/07/10 12:16:46;;;;;;;0.10;0.10;;;17.70;99.90;;;;;;6185871;23;20028;-84
2022/07/10 12:19:14;;;;;;;0.10;0.10;;;17.70;99.90;;;;;;6210796;23;20013;-83
2022/07/10 12:21:45;;;;;;;0.10;0.10;;;17.60;99.90;;;;;;6185113;23;20031;-82
2022/07/10 12:24:12;;;;;;;0.20;0.20;;;17.60;99.90;;;;;;6211817;23;20130;-85
2022/07/10 12:26:41;;;;;;;0.20;0.20;;;17.70;99.90;;;;;;6183935;23;20020;-83
2022/07/10 12:29:21;;;;;;;0.10;0.10;;;17.70;99.90;;;;;;6184212;23;20189;-83
2022/07/10 12:31:49;;;;;;;0.20;0.20;;;17.80;99.90;;;;;;6184067;23;20025;-83
2022/07/10 12:34:15;;;;;;;0.10;0.10;;;17.80;99.90;;;;;;6210509;23;20092;-84
2022/07/10 12:36:52;;;;;;;0.20;0.20;;;17.80;99.90;;;;;;6184835;23;20353;-83
2022/07/10 12:39:23;;;;;;;0.10;0.10;;;17.80;99.90;;;;;;6210505;23;20016;-82
2022/07/10 12:42:02;;;;;;;0.10;0.10;;;17.90;99.90;;;;;;6184678;23;20025;-83
2022/07/10 12:44:47;;;;;;;0.20;0.20;;;17.90;99.90;;;;;;6211267;23;20094;-82
2022/07/10 12:47:20;;;;;;;0.20;0.20;;;17.90;99.90;;;;;;6184249;23;20068;-82
2022/07/10 12:50:06;;;;;;;0.20;0.20;;;17.80;99.90;;;;;;6178373;23;20029;-84
2022/07/10 12:52:38;;;;;;;0.20;0.20;;;17.80;99.90;;;;;;6190861;23;20150;-84
2022/07/10 12:55:10;;;;;;;;;;;17.70;99.90;;;;;;6222519;23;20342;-83
2022/07/10 12:57:54;;;;;;;0.20;0.20;;;17.60;99.90;;;;;;6225111;23;19916;-82
2022/07/10 13:00:33;;;;;;;0.20;0.20;;;17.60;99.90;;;;;;6201732;23;20024;-86
2022/07/10 13:03:09;;;;;;;0.10;0.10;;;17.50;99.90;;;;;;6205648;23;20089;-86